createdAt,value
2023-01-18T00:00:55.724Z,8.15
2023-01-18T00:03:22.345Z,8.19
2023-01-18T00:05:48.926Z,8.22
2023-01-18T00:08:15.574Z,8.27
2023-01-18T00:10:42.194Z,8.36
2023-01-18T00:13:08.888Z,8.30
2023-01-18T00:15:35.517Z,8.24
2023-01-18T00:18:02.170Z,8.23
2023-01-18T00:20:28.777Z,8.13
2023-01-18T00:22:55.636Z,8.05
2023-01-18T00:25:22.475Z,8.13
2023-01-18T00:27:49.075Z,8.10
2023-01-18T00:30:15.692Z,7.97
2023-01-18T00:32:42.313Z,7.98
2023-01-18T00:35:08.932Z,7.87
2023-01-18T00:37:35.515Z,7.84
2023-01-18T00:40:02.135Z,7.96
2023-01-18T00:42:28.741Z,8.06
2023-01-18T00:44:55.423Z,8.15
2023-01-18T00:47:22.066Z,8.15
2023-01-18T00:49:48.729Z,8.20
2023-01-18T00:52:15.324Z,8.15
2023-01-18T00:54:41.962Z,8.15
2023-01-18T00:57:08.551Z,8.21
2023-01-18T00:59:35.195Z,8.16
2023-01-18T01:02:01.933Z,8.21
2023-01-18T01:04:28.651Z,8.25
2023-01-18T01:06:55.247Z,8.30
2023-01-18T01:09:21.867Z,8.32
2023-01-18T01:11:48.462Z,8.09
2023-01-18T01:14:15.074Z,7.97
2023-01-18T01:16:41.752Z,7.91
2023-01-18T01:19:08.401Z,8.12
2023-01-18T01:21:35.081Z,8.17
2023-01-18T01:24:01.663Z,8.26
2023-01-18T01:26:28.342Z,8.13
2023-01-18T01:28:54.917Z,8.03
2023-01-18T01:31:21.521Z,8.01
2023-01-18T01:33:48.107Z,7.90
2023-01-18T01:36:14.675Z,7.98
2023-01-18T01:38:41.354Z,8.20
2023-01-18T01:41:07.942Z,8.24
2023-01-18T01:43:34.598Z,8.34
2023-01-18T01:46:01.249Z,8.30
2023-01-18T01:48:27.951Z,8.26
2023-01-18T01:50:54.541Z,8.21
2023-01-18T01:53:21.203Z,8.29
2023-01-18T01:55:47.796Z,8.19
2023-01-18T01:58:14.458Z,8.32
2023-01-18T02:00:41.013Z,8.39
2023-01-18T02:03:07.684Z,8.36
2023-01-18T02:05:34.270Z,8.39
2023-01-18T02:08:00.855Z,8.42
2023-01-18T02:10:27.460Z,8.15
2023-01-18T02:12:54.099Z,8.00
2023-01-18T02:15:20.787Z,7.99
2023-01-18T02:17:47.408Z,8.18
2023-01-18T02:20:14.078Z,8.29
2023-01-18T02:22:40.740Z,8.30
2023-01-18T02:25:07.325Z,8.36
2023-01-18T02:27:34.032Z,8.36
2023-01-18T02:30:00.680Z,8.37
2023-01-18T02:32:27.332Z,8.42
2023-01-18T02:34:53.900Z,8.37
2023-01-18T02:37:20.492Z,8.40
2023-01-18T02:39:47.066Z,8.49
2023-01-18T02:42:13.719Z,8.56
2023-01-18T02:44:40.342Z,8.52
2023-01-18T02:47:06.905Z,8.50
2023-01-18T02:49:33.518Z,8.51
2023-01-18T02:52:00.170Z,8.40
2023-01-18T02:54:26.819Z,8.44
2023-01-18T02:56:53.487Z,8.21
2023-01-18T02:59:20.077Z,8.18
2023-01-18T03:01:46.728Z,8.25
2023-01-18T03:04:13.323Z,8.41
2023-01-18T03:06:39.919Z,8.45
2023-01-18T03:09:06.509Z,8.36
2023-01-18T03:11:33.120Z,8.42
2023-01-18T03:13:59.698Z,8.27
2023-01-18T03:16:26.263Z,8.35
2023-01-18T03:18:53.002Z,8.41
2023-01-18T03:21:19.622Z,8.29
2023-01-18T03:23:46.228Z,8.14
2023-01-18T03:26:12.807Z,8.21
2023-01-18T03:28:39.441Z,8.32
2023-01-18T03:31:06.059Z,8.21
2023-01-18T03:33:32.705Z,8.14
2023-01-18T03:35:59.323Z,8.05
2023-01-18T03:38:25.955Z,8.10
2023-01-18T03:40:52.602Z,8.11
2023-01-18T03:43:19.206Z,8.11
2023-01-18T03:45:45.840Z,8.12
2023-01-18T03:48:12.464Z,8.04
2023-01-18T03:50:39.122Z,7.82
2023-01-18T03:53:05.755Z,7.88
2023-01-18T03:55:32.353Z,7.98
2023-01-18T03:57:58.931Z,7.89
2023-01-18T04:00:25.505Z,7.62
2023-01-18T04:02:52.164Z,7.54
2023-01-18T04:05:18.755Z,7.58
2023-01-18T04:07:45.343Z,7.43
2023-01-18T04:10:11.948Z,7.61
2023-01-18T04:12:38.594Z,7.76
2023-01-18T04:15:05.228Z,7.84
2023-01-18T04:17:31.847Z,7.69
2023-01-18T04:19:58.493Z,7.66
2023-01-18T04:22:25.117Z,7.81
2023-01-18T04:24:51.752Z,7.92
2023-01-18T04:27:18.348Z,8.03
2023-01-18T04:29:44.970Z,8.06
2023-01-18T04:32:11.543Z,8.13
2023-01-18T04:34:38.165Z,8.07
2023-01-18T04:37:04.825Z,7.94
2023-01-18T04:39:31.491Z,7.60
2023-01-18T04:41:58.137Z,7.84
2023-01-18T04:44:24.735Z,7.96
2023-01-18T04:46:51.439Z,8.04
2023-01-18T04:49:18.063Z,8.14
2023-01-18T04:51:44.767Z,8.13
2023-01-18T04:54:11.388Z,8.00
2023-01-18T04:56:37.988Z,8.03
2023-01-18T04:59:04.574Z,8.05
2023-01-18T05:01:31.287Z,8.12
2023-01-18T05:03:57.939Z,8.15
2023-01-18T05:06:24.555Z,8.23
2023-01-18T05:08:51.148Z,8.22
2023-01-18T05:11:17.751Z,8.18
2023-01-18T05:13:44.360Z,8.10
2023-01-18T05:16:10.991Z,8.03
2023-01-18T05:18:37.693Z,8.05
2023-01-18T05:21:04.312Z,7.81
2023-01-18T05:23:30.978Z,7.34
2023-01-18T05:25:57.550Z,7.66
2023-01-18T05:28:24.109Z,7.94
2023-01-18T05:30:50.727Z,8.01
2023-01-18T05:33:17.392Z,7.92
2023-01-18T05:35:44.015Z,8.00
2023-01-18T05:38:10.610Z,7.97
2023-01-18T05:40:37.266Z,7.94
2023-01-18T05:43:03.899Z,7.92
2023-01-18T05:45:30.529Z,7.87
2023-01-18T05:47:57.098Z,7.89
2023-01-18T05:50:23.680Z,7.87
2023-01-18T05:52:50.307Z,7.77
2023-01-18T05:55:16.889Z,7.69
2023-01-18T05:57:43.477Z,7.77
2023-01-18T06:00:10.076Z,7.91
2023-01-18T06:02:36.740Z,7.86
2023-01-18T06:05:03.356Z,7.83
2023-01-18T06:07:29.971Z,7.89
2023-01-18T06:09:56.604Z,7.92
2023-01-18T06:12:23.230Z,8.02
2023-01-18T06:14:49.828Z,8.05
2023-01-18T06:17:16.434Z,8.10
2023-01-18T06:19:43.077Z,8.13
2023-01-18T06:22:09.780Z,8.19
2023-01-18T06:24:36.361Z,8.06
2023-01-18T06:27:02.965Z,7.97
2023-01-18T06:29:29.545Z,7.71
2023-01-18T06:31:56.323Z,8.01
2023-01-18T06:34:23.003Z,8.18
2023-01-18T06:36:49.656Z,8.17
2023-01-18T06:39:16.307Z,8.22
2023-01-18T06:41:42.915Z,8.39
2023-01-18T06:44:09.590Z,8.21
2023-01-18T06:46:36.200Z,7.96
2023-01-18T06:49:02.856Z,8.19
2023-01-18T06:51:29.489Z,8.11
2023-01-18T06:53:56.156Z,8.06
2023-01-18T06:56:22.750Z,8.12
2023-01-18T06:58:49.321Z,8.23
2023-01-18T07:01:15.976Z,8.11
2023-01-18T07:03:42.707Z,8.11
2023-01-18T07:06:09.363Z,8.18
2023-01-18T07:08:36.000Z,8.03
2023-01-18T07:11:02.604Z,8.22
2023-01-18T07:13:29.175Z,8.19
2023-01-18T07:15:55.779Z,8.19
2023-01-18T07:18:22.368Z,8.09
2023-01-18T07:20:48.944Z,8.20
2023-01-18T07:23:15.532Z,8.45
2023-01-18T07:25:42.180Z,8.49
2023-01-18T07:28:08.873Z,8.23
2023-01-18T07:30:35.509Z,8.28
2023-01-18T07:33:02.161Z,8.43
2023-01-18T07:35:29.763Z,8.13
2023-01-18T07:37:56.432Z,7.97
2023-01-18T07:40:23.064Z,8.08
2023-01-18T07:42:49.699Z,8.25
2023-01-18T07:45:16.312Z,8.42
2023-01-18T07:47:42.891Z,8.46
2023-01-18T07:50:09.515Z,8.59
2023-01-18T07:52:36.073Z,8.88
2023-01-18T07:55:02.733Z,8.71
2023-01-18T07:57:29.526Z,8.61
2023-01-18T07:59:56.189Z,8.86
2023-01-18T08:02:22.792Z,9.04
2023-01-18T08:04:49.380Z,9.01
2023-01-18T08:07:17.870Z,9.07
2023-01-18T08:09:44.591Z,8.99
2023-01-18T08:12:11.284Z,9.08
2023-01-18T08:14:37.856Z,9.19
2023-01-18T08:17:04.491Z,9.25
2023-01-18T08:19:31.115Z,9.04
2023-01-18T08:21:57.735Z,8.73
2023-01-18T08:24:25.067Z,8.49
2023-01-18T08:26:51.663Z,8.31
2023-01-18T08:29:18.292Z,8.24
2023-01-18T08:31:44.894Z,8.73
2023-01-18T08:34:11.517Z,8.97
2023-01-18T08:36:38.111Z,8.96
2023-01-18T08:39:04.745Z,8.89
2023-01-18T08:41:31.392Z,9.21
2023-01-18T08:43:58.026Z,9.25
2023-01-18T08:46:24.891Z,9.26
2023-01-18T08:48:51.581Z,9.33
2023-01-18T08:51:18.745Z,8.92
2023-01-18T08:53:45.377Z,8.68
2023-01-18T08:56:12.023Z,9.01
2023-01-18T08:58:38.717Z,9.28
2023-01-18T09:01:05.486Z,9.11
2023-01-18T09:03:32.108Z,9.26
2023-01-18T09:05:58.774Z,9.52
2023-01-18T09:08:25.435Z,9.56
2023-01-18T09:10:52.089Z,9.61
2023-01-18T09:13:18.720Z,9.70
2023-01-18T09:15:45.463Z,9.72
2023-01-18T09:18:12.170Z,9.67
2023-01-18T09:20:38.821Z,9.63
2023-01-18T09:23:05.509Z,9.36
2023-01-18T09:25:32.179Z,9.40
2023-01-18T09:27:58.800Z,9.51
2023-01-18T09:30:25.445Z,9.39
2023-01-18T09:32:52.048Z,8.98
2023-01-18T09:35:18.679Z,9.19
2023-01-18T09:37:45.554Z,9.47
2023-01-18T09:40:12.155Z,9.47
2023-01-18T09:42:38.795Z,9.38
2023-01-18T09:45:05.459Z,9.62
2023-01-18T09:47:32.088Z,9.52
2023-01-18T09:49:58.710Z,8.93
2023-01-18T09:52:25.320Z,8.98
2023-01-18T09:54:51.927Z,9.01
2023-01-18T09:57:18.574Z,9.34
2023-01-18T09:59:45.224Z,9.44
2023-01-18T10:02:11.989Z,9.41
2023-01-18T10:04:38.687Z,9.30
2023-01-18T10:07:05.279Z,9.52
2023-01-18T10:09:31.891Z,9.66
2023-01-18T10:11:58.538Z,9.65
2023-01-18T10:14:25.115Z,9.73
2023-01-18T10:16:53.593Z,9.70
2023-01-18T10:19:22.060Z,9.67
2023-01-18T10:21:48.703Z,9.83
2023-01-18T10:24:15.310Z,9.95
2023-01-18T10:26:42.064Z,10.10
2023-01-18T10:29:08.664Z,10.16
2023-01-18T10:31:35.381Z,10.20
2023-01-18T10:34:02.004Z,10.25
2023-01-18T10:36:28.636Z,10.31
2023-01-18T10:38:55.297Z,10.34
2023-01-18T10:41:21.890Z,10.32
2023-01-18T10:43:48.539Z,10.19
2023-01-18T10:46:15.173Z,10.31
2023-01-18T10:48:41.816Z,10.36
2023-01-18T10:51:08.780Z,10.43
2023-01-18T10:53:35.338Z,10.51
2023-01-18T10:56:01.935Z,10.45
2023-01-18T10:58:28.563Z,10.51
2023-01-18T11:00:55.353Z,10.39
2023-01-18T11:03:22.053Z,10.41
2023-01-18T11:05:48.880Z,9.63
2023-01-18T11:08:15.527Z,9.39
2023-01-18T11:10:42.111Z,10.21
2023-01-18T11:13:09.734Z,11.05
2023-01-18T11:15:36.684Z,11.36
2023-01-18T11:18:03.435Z,11.57
2023-01-18T11:20:30.235Z,11.89
2023-01-18T11:22:57.387Z,11.51
2023-01-18T11:25:24.208Z,11.88
2023-01-18T11:27:50.979Z,12.15
2023-01-18T11:30:18.006Z,12.49
2023-01-18T11:32:44.726Z,12.97
2023-01-18T11:35:11.640Z,13.17
2023-01-18T11:37:38.406Z,13.26
2023-01-18T11:40:05.198Z,13.19
2023-01-18T11:42:32.140Z,13.01
2023-01-18T11:44:58.865Z,13.01
2023-01-18T11:47:25.650Z,13.18
2023-01-18T11:49:52.482Z,13.72
2023-01-18T11:52:19.274Z,14.26
2023-01-18T11:54:45.952Z,14.10
2023-01-18T11:57:12.681Z,14.02
2023-01-18T11:59:39.517Z,13.89
2023-01-18T12:02:06.409Z,13.58
2023-01-18T12:04:33.155Z,13.78
2023-01-18T12:07:00.123Z,13.36
2023-01-18T12:09:27.006Z,13.64
2023-01-18T12:11:53.807Z,13.84
2023-01-18T12:14:23.241Z,13.40
2023-01-18T12:16:50.086Z,13.49
2023-01-18T12:19:17.325Z,12.99
2023-01-18T12:21:44.180Z,13.13
2023-01-18T12:24:13.871Z,13.11
2023-01-18T12:26:40.640Z,13.21
2023-01-18T12:29:07.298Z,12.86
2023-01-18T12:31:34.047Z,11.85
2023-01-18T12:34:00.955Z,11.92
2023-01-18T12:36:28.091Z,11.90
2023-01-18T12:38:54.785Z,12.68
2023-01-18T12:41:21.687Z,12.90
2023-01-18T12:43:48.404Z,13.08
2023-01-18T12:46:15.245Z,13.43
2023-01-18T12:48:41.977Z,13.25
2023-01-18T12:51:08.724Z,13.21
2023-01-18T12:53:35.567Z,13.28
2023-01-18T12:56:04.008Z,13.32
2023-01-18T12:58:30.877Z,13.12
2023-01-18T13:00:58.037Z,13.14
2023-01-18T13:03:25.303Z,13.29
2023-01-18T13:05:52.242Z,13.38
2023-01-18T13:08:18.901Z,13.32
2023-01-18T13:10:45.582Z,13.30
2023-01-18T13:13:12.223Z,13.32
2023-01-18T13:15:39.016Z,13.24
2023-01-18T13:18:05.969Z,13.34
2023-01-18T13:20:32.648Z,13.41
2023-01-18T13:22:59.418Z,13.36
2023-01-18T13:25:26.249Z,13.41
2023-01-18T13:27:53.062Z,13.42
2023-01-18T13:30:19.757Z,13.36
2023-01-18T13:32:46.426Z,13.06
2023-01-18T13:35:20.526Z,12.85
2023-01-18T13:37:48.089Z,12.34
2023-01-18T13:40:15.273Z,11.92
2023-01-18T13:42:41.913Z,11.35
2023-01-18T13:45:08.637Z,11.14
2023-01-18T13:47:35.439Z,11.24
2023-01-18T13:50:02.350Z,11.28
2023-01-18T13:52:29.372Z,10.90
2023-01-18T13:54:56.203Z,10.93
2023-01-18T13:57:23.087Z,10.98
2023-01-18T13:59:49.768Z,11.54
2023-01-18T14:02:16.441Z,11.62
2023-01-18T14:04:43.272Z,11.88
2023-01-18T14:07:10.030Z,12.06
2023-01-18T14:09:36.728Z,11.81
2023-01-18T14:12:03.410Z,11.87
2023-01-18T14:14:30.090Z,11.65
2023-01-18T14:16:56.916Z,11.18
2023-01-18T14:19:23.580Z,11.13
2023-01-18T14:21:50.232Z,11.27
2023-01-18T14:24:16.859Z,11.57
2023-01-18T14:26:43.496Z,11.45
2023-01-18T14:29:10.135Z,10.76
2023-01-18T14:31:36.832Z,11.12
2023-01-18T14:34:03.442Z,10.87
2023-01-18T14:36:30.062Z,11.08
2023-01-18T14:38:56.719Z,11.49
2023-01-18T14:41:23.349Z,11.72
2023-01-18T14:43:49.996Z,11.75
2023-01-18T14:46:16.679Z,11.70
2023-01-18T14:48:43.322Z,11.94
2023-01-18T14:51:09.968Z,11.71
2023-01-18T14:53:36.613Z,11.66
2023-01-18T14:56:03.205Z,11.77
2023-01-18T14:58:31.555Z,11.67
2023-01-18T15:00:59.482Z,11.73
2023-01-18T15:03:26.126Z,11.70
2023-01-18T15:05:52.767Z,11.63
2023-01-18T15:08:19.328Z,11.61
2023-01-18T15:10:46.098Z,11.56
2023-01-18T15:13:12.705Z,11.61
2023-01-18T15:15:39.343Z,11.02
2023-01-18T15:18:06.011Z,10.81
2023-01-18T15:20:32.650Z,10.85
2023-01-18T15:22:59.616Z,10.86
2023-01-18T15:25:26.424Z,11.13
2023-01-18T15:27:53.103Z,11.33
2023-01-18T15:30:19.673Z,11.05
2023-01-18T15:32:46.281Z,11.08
2023-01-18T15:35:13.019Z,11.12
2023-01-18T15:37:39.631Z,11.19
2023-01-18T15:40:06.240Z,11.20
2023-01-18T15:42:32.880Z,11.16
2023-01-18T15:44:59.459Z,11.17
2023-01-18T15:47:26.023Z,11.16
2023-01-18T15:49:52.694Z,11.15
2023-01-18T15:52:19.360Z,11.10
2023-01-18T15:54:45.962Z,11.03
2023-01-18T15:57:12.544Z,11.01
2023-01-18T15:59:39.389Z,11.01
2023-01-18T16:02:06.084Z,10.97
2023-01-18T16:04:32.833Z,10.92
2023-01-18T16:06:59.391Z,10.87
2023-01-18T16:09:26.017Z,10.79
2023-01-18T16:11:52.630Z,10.81
2023-01-18T16:14:19.201Z,10.81
2023-01-18T16:16:45.865Z,10.79
2023-01-18T16:19:12.523Z,10.74
2023-01-18T16:21:39.159Z,10.54
2023-01-18T16:24:05.845Z,10.59
2023-01-18T16:26:32.433Z,10.46
2023-01-18T16:28:59.076Z,10.47
2023-01-18T16:31:25.823Z,10.49
2023-01-18T16:33:52.543Z,10.53
2023-01-18T16:36:19.195Z,10.53
2023-01-18T16:38:45.851Z,10.54
2023-01-18T16:41:12.487Z,10.53
2023-01-18T16:43:39.139Z,10.42
2023-01-18T16:46:05.849Z,10.47
2023-01-18T16:48:32.556Z,10.54
2023-01-18T16:50:59.140Z,10.59
2023-01-18T16:53:25.783Z,10.61
2023-01-18T16:55:52.392Z,10.58
2023-01-18T16:58:18.965Z,10.55
2023-01-18T17:00:45.685Z,10.54
2023-01-18T17:03:12.360Z,10.25
2023-01-18T17:05:39.005Z,10.11
2023-01-18T17:08:05.634Z,10.09
2023-01-18T17:10:32.272Z,10.14
2023-01-18T17:12:59.305Z,10.24
2023-01-18T17:15:26.070Z,10.30
2023-01-18T17:17:52.660Z,10.38
2023-01-18T17:20:19.241Z,10.41
2023-01-18T17:22:45.941Z,10.53
2023-01-18T17:25:12.547Z,10.48
2023-01-18T17:27:39.193Z,10.45
2023-01-18T17:30:05.894Z,10.45
2023-01-18T17:32:32.492Z,10.45
2023-01-18T17:34:59.121Z,10.24
2023-01-18T17:37:25.812Z,10.24
2023-01-18T17:40:10.918Z,10.22
2023-01-18T17:42:38.937Z,10.06
2023-01-18T17:45:05.594Z,10.02
2023-01-18T17:47:32.187Z,10.08
2023-01-18T17:49:58.801Z,9.87
2023-01-18T17:52:25.427Z,9.91
2023-01-18T17:54:52.075Z,9.95
2023-01-18T17:57:18.716Z,9.80
2023-01-18T17:59:45.395Z,9.74
2023-01-18T18:02:12.099Z,9.86
2023-01-18T18:04:38.828Z,9.83
2023-01-18T18:07:05.546Z,9.70
2023-01-18T18:09:32.217Z,9.71
2023-01-18T18:11:58.873Z,9.71
2023-01-18T18:14:25.453Z,9.75
2023-01-18T18:16:52.131Z,9.77
2023-01-18T18:19:18.747Z,9.83
2023-01-18T18:21:45.430Z,9.77
2023-01-18T18:24:12.026Z,9.71
2023-01-18T18:26:38.661Z,9.75
2023-01-18T18:29:05.342Z,9.78
2023-01-18T18:31:32.025Z,9.83
2023-01-18T18:33:58.640Z,9.83
2023-01-18T18:36:25.281Z,9.68
2023-01-18T18:38:51.941Z,9.70
2023-01-18T18:41:18.569Z,9.48
2023-01-18T18:43:45.272Z,9.51
2023-01-18T18:46:11.944Z,9.62
2023-01-18T18:48:38.607Z,9.64
2023-01-18T18:51:05.203Z,9.73
2023-01-18T18:53:38.198Z,9.79
2023-01-18T18:56:05.390Z,9.74
2023-01-18T18:58:32.010Z,9.69
2023-01-18T19:00:58.716Z,9.66
2023-01-18T19:03:25.328Z,9.66
2023-01-18T19:05:51.967Z,9.74
2023-01-18T19:08:18.577Z,9.69
2023-01-18T19:10:45.212Z,9.64
2023-01-18T19:13:11.884Z,9.51
2023-01-18T19:15:38.555Z,9.40
2023-01-18T19:18:05.197Z,9.57
2023-01-18T19:20:31.861Z,9.46
2023-01-18T19:22:58.783Z,9.42
2023-01-18T19:25:25.696Z,9.45
2023-01-18T19:27:52.311Z,9.47
2023-01-18T19:30:19.403Z,9.54
2023-01-18T19:32:46.062Z,9.59
2023-01-18T19:35:12.679Z,9.40
2023-01-18T19:37:39.293Z,9.44
2023-01-18T19:40:05.910Z,9.45
2023-01-18T19:42:32.558Z,9.42
2023-01-18T19:44:59.530Z,9.46
2023-01-18T19:47:26.219Z,9.44
2023-01-18T19:49:52.905Z,9.39
2023-01-18T19:52:19.646Z,9.44
2023-01-18T19:54:46.283Z,9.45
2023-01-18T19:57:12.877Z,9.44
2023-01-18T19:59:39.521Z,9.19
2023-01-18T20:02:06.321Z,9.27
2023-01-18T20:04:33.095Z,9.37
2023-01-18T20:06:59.754Z,9.44
2023-01-18T20:09:35.166Z,9.20
2023-01-18T20:12:09.214Z,9.33
2023-01-18T20:14:41.221Z,9.24
2023-01-18T20:17:08.412Z,9.05
2023-01-18T20:19:35.028Z,9.10
2023-01-18T20:22:01.746Z,9.05
2023-01-18T20:24:28.511Z,9.14
2023-01-18T20:26:57.720Z,9.11
2023-01-18T20:29:26.248Z,9.30
2023-01-18T20:31:55.178Z,9.28
2023-01-18T20:34:23.860Z,9.26
2023-01-18T20:36:50.527Z,9.20
2023-01-18T20:39:17.184Z,9.08
2023-01-18T20:41:43.826Z,9.22
2023-01-18T20:44:10.473Z,9.09
2023-01-18T20:46:37.117Z,8.68
2023-01-18T20:49:03.782Z,8.97
2023-01-18T20:51:30.420Z,9.03
2023-01-18T20:53:57.093Z,9.09
2023-01-18T20:56:29.197Z,8.47
2023-01-18T20:58:56.186Z,8.87
2023-01-18T21:01:22.878Z,9.05
2023-01-18T21:06:33.651Z,9.21
2023-01-18T21:09:00.298Z,9.17
2023-01-18T21:11:27.018Z,9.18
2023-01-18T21:13:53.671Z,9.21
2023-01-18T21:16:20.322Z,8.97
2023-01-18T21:18:46.957Z,8.92
2023-01-18T21:21:13.580Z,9.12
2023-01-18T21:23:40.178Z,9.02
2023-01-18T21:26:06.849Z,9.19
2023-01-18T21:28:33.437Z,9.26
2023-01-18T21:31:00.100Z,9.41
2023-01-18T21:33:26.759Z,9.05
2023-01-18T21:35:53.381Z,9.04
2023-01-18T21:38:19.986Z,9.07
2023-01-18T21:40:46.666Z,9.27
2023-01-18T21:43:13.305Z,9.19
2023-01-18T21:45:39.939Z,9.06
2023-01-18T21:48:06.583Z,9.04
2023-01-18T21:50:33.188Z,9.08
2023-01-18T21:52:59.777Z,9.20
2023-01-18T21:55:26.402Z,9.27
2023-01-18T21:57:52.968Z,9.00
2023-01-18T22:00:19.614Z,9.03
2023-01-18T22:02:46.234Z,8.99
2023-01-18T22:05:12.852Z,8.68
2023-01-18T22:07:39.468Z,8.62
2023-01-18T22:10:07.257Z,8.87
2023-01-18T22:12:34.023Z,8.79
2023-01-18T22:15:00.615Z,8.87
2023-01-18T22:17:27.261Z,9.00
2023-01-18T22:19:53.893Z,8.81
2023-01-18T22:22:20.527Z,9.00
2023-01-18T22:24:47.116Z,9.02
2023-01-18T22:27:13.727Z,9.20
2023-01-18T22:29:40.400Z,9.14
2023-01-18T22:32:07.096Z,9.23
2023-01-18T22:34:33.714Z,9.28
2023-01-18T22:37:00.321Z,9.33
2023-01-18T22:39:26.946Z,9.11
2023-01-18T22:41:53.529Z,8.92
2023-01-18T22:44:20.187Z,9.06
2023-01-18T22:46:46.801Z,8.99
2023-01-18T22:49:13.392Z,9.11
2023-01-18T22:51:40.000Z,9.09
2023-01-18T22:54:06.607Z,9.13
2023-01-18T22:56:33.198Z,9.16
2023-01-18T22:58:59.832Z,9.24
2023-01-18T23:01:26.604Z,9.24
2023-01-18T23:03:53.314Z,9.24
2023-01-18T23:06:20.035Z,9.18
2023-01-18T23:08:46.619Z,9.38
2023-01-18T23:11:13.247Z,9.36
2023-01-18T23:13:39.866Z,9.33
2023-01-18T23:16:06.543Z,9.36
2023-01-18T23:18:33.257Z,9.37
2023-01-18T23:21:00.103Z,9.51
2023-01-18T23:23:26.761Z,9.43
2023-01-18T23:25:53.389Z,9.39
2023-01-18T23:28:20.000Z,9.39
2023-01-18T23:30:46.670Z,9.36
2023-01-18T23:33:13.324Z,9.28
2023-01-18T23:35:40.027Z,9.19
2023-01-18T23:38:06.666Z,9.21
2023-01-18T23:40:33.291Z,9.24
2023-01-18T23:42:59.940Z,8.76
2023-01-18T23:45:28.343Z,9.08
2023-01-18T23:47:55.656Z,9.12
2023-01-18T23:50:22.283Z,9.22
2023-01-18T23:52:48.914Z,8.95
2023-01-18T23:55:15.575Z,9.00
2023-01-18T23:57:42.170Z,9.05
